Terminal Aerodrome Forecast
Issued by NWS

Home | Current Version | Previous Version | Graphics & Text | Print | Product List | Glossary On
Versions: 1 2 3 4 5 6 7 8 9 10 11 12 13 14
000
FTUS43 KBIS 261133
TAFDIK
TAF
KDIK 261133Z 2612/2712 01006KT P6SM BKN030
     FM261600 02009KT P6SM SCT050
     FM261900 03010KT P6SM SCT150
     FM270200 06008KT P6SM FEW150=

USA.gov is the U.S. government's official web portal to all federal, state and local government web resources and services.